Darstellungsparameter: Aktuell verwendete Einstellungen:
Skalierung der Graphiken ... ?
xyx+y,   Skalierungsfaktor:      Skalierung: Modus: x, Faktor: 1
Darstellungszeitraum ... ?
Vom - - bis: - -   Zeitraum: 22.08.2019 - 22.08.2019
Min/Max/Avg-Anzeige ... ?
Zeige MMA aktuell
Zeige MMA Monat
Zeige MMA alles
Zeige --A aktuell
Zeige --A Monat
Zeige --A alles
Keine MMA-Anzeige
MMA:
Keine MMA-Graphiken
MMA-Basis: 22.08.2019 - 22.08.2019
Quicknavigation für Darstellung... ?
Tage:      1T, 2T, 3T, 5T -1T -2T -3T -5T +1T +2T +3T +5T
Wochen: 1W, 2W, 3W -1W -2W -3W +1W +2W +3W
Monate: 1M, 3M, 6M -1M -3M -6M +1M +3M +6M
Jahre:    1J, 3J, 5J, 10J -1J -3J -5J -10J +1J +3J +5J +10J
Nutze für die Darstellung ... ?
Originaldaten oder Mittelwerte auf ...
Stundenbasis Tagesbasis Wochenbasis
Monatsbasis Jahresbasis      Datenbasis: Original-Daten
Darstellen als:
Statistik (Auto) Statistik J:M      Darstellung:
Zur Graphik,    zurück zur Übersicht aller Sensoren.
 
Tabellarische Datenbersicht: ?
 
Sensor: Nr:Datum:Temp:Feuchte:Taupunkt:
Aussen-T/F 1 22-08-2019 00:00:00 14 C 82 % 10.98 C
2 22-08-2019 00:05:00 13.9 C 82 % 10.88 C
3 22-08-2019 00:10:00 13.9 C 82 % 10.88 C
4 22-08-2019 00:15:00 13.8 C 83 % 10.97 C
5 22-08-2019 00:20:00 13.6 C 83 % 10.77 C
6 22-08-2019 00:25:00 13.5 C 83 % 10.67 C
7 22-08-2019 00:30:00 13.4 C 84 % 10.75 C
8 22-08-2019 00:35:00 13.3 C 84 % 10.66 C
9 22-08-2019 00:40:00 13.2 C 84 % 10.56 C
10 22-08-2019 00:45:00 13.1 C 85 % 10.64 C
11 22-08-2019 00:50:00 13.1 C 85 % 10.64 C
12 22-08-2019 00:55:00 12.9 C 85 % 10.44 C
13 22-08-2019 01:00:00 12.8 C 85 % 10.34 C
14 22-08-2019 01:05:00 12.8 C 85 % 10.34 C
15 22-08-2019 01:10:00 12.7 C 85 % 10.25 C
16 22-08-2019 01:15:00 12.6 C 85 % 10.15 C
17 22-08-2019 01:20:00 12.5 C 86 % 10.22 C
18 22-08-2019 01:25:00 12.4 C 86 % 10.13 C
19 22-08-2019 01:30:00 12.3 C 86 % 10.03 C
20 22-08-2019 01:35:00 12.3 C 86 % 10.03 C
21 22-08-2019 01:40:00 12.2 C 87 % 10.1 C
22 22-08-2019 01:45:00 12.2 C 87 % 10.1 C
23 22-08-2019 01:50:00 12.1 C 87 % 10 C
24 22-08-2019 01:55:00 12.1 C 87 % 10 C
25 22-08-2019 02:00:00 12 C 88 % 10.08 C
Sensor: Nr:Datum:Temp:Feuchte:Taupunkt:
Aussen-T/F 26 22-08-2019 02:05:00 11.9 C 88 % 9.98 C
27 22-08-2019 02:10:00 11.9 C 88 % 9.98 C
28 22-08-2019 02:15:00 11.8 C 88 % 9.88 C
29 22-08-2019 02:20:00 11.8 C 88 % 9.88 C
30 22-08-2019 02:25:00 11.7 C 88 % 9.78 C
31 22-08-2019 02:30:00 11.6 C 89 % 9.85 C
32 22-08-2019 02:35:00 11.6 C 89 % 9.85 C
33 22-08-2019 02:40:00 11.5 C 89 % 9.75 C
34 22-08-2019 02:45:00 11.4 C 89 % 9.65 C
35 22-08-2019 02:50:00 11.4 C 89 % 9.65 C
36 22-08-2019 02:55:00 11.4 C 90 % 9.82 C
37 22-08-2019 03:00:00 11.3 C 90 % 9.72 C
38 22-08-2019 03:05:00 11.3 C 90 % 9.72 C
39 22-08-2019 03:10:00 11.2 C 90 % 9.62 C
40 22-08-2019 03:15:00 11.2 C 91 % 9.79 C
41 22-08-2019 03:20:00 11.3 C 91 % 9.89 C
42 22-08-2019 03:25:00 11.2 C 91 % 9.79 C
43 22-08-2019 03:30:00 11.2 C 90 % 9.62 C
44 22-08-2019 03:35:00 11.1 C 90 % 9.52 C
45 22-08-2019 03:40:00 11 C 90 % 9.42 C
46 22-08-2019 03:45:00 10.9 C 90 % 9.33 C
47 22-08-2019 03:50:00 10.9 C 91 % 9.49 C
48 22-08-2019 03:55:00 10.9 C 91 % 9.49 C
49 22-08-2019 04:00:00 10.8 C 91 % 9.39 C
50 22-08-2019 04:05:00 10.7 C 91 % 9.29 C
Sensor: Nr:Datum:Temp:Feuchte:Taupunkt:
Aussen-T/F 51 22-08-2019 04:10:00 10.7 C 91 % 9.29 C
52 22-08-2019 04:15:00 10.6 C 91 % 9.19 C
53 22-08-2019 04:20:00 10.6 C 92 % 9.36 C
54 22-08-2019 04:25:00 10.6 C 92 % 9.36 C
55 22-08-2019 04:30:00 10.6 C 92 % 9.36 C
56 22-08-2019 04:35:00 10.6 C 92 % 9.36 C
57 22-08-2019 04:40:00 10.5 C 92 % 9.26 C
58 22-08-2019 04:45:00 10.4 C 92 % 9.16 C
59 22-08-2019 04:50:00 10.3 C 92 % 9.06 C
60 22-08-2019 04:55:00 10.3 C 92 % 9.06 C
61 22-08-2019 05:00:00 10.2 C 92 % 8.96 C
62 22-08-2019 05:05:00 10.2 C 92 % 8.96 C
63 22-08-2019 05:10:00 10.2 C 92 % 8.96 C
64 22-08-2019 05:15:00 10.1 C 92 % 8.86 C
65 22-08-2019 05:20:00 10.1 C 93 % 9.02 C
66 22-08-2019 05:25:00 10.1 C 93 % 9.02 C
67 22-08-2019 05:30:00 9.9 C 93 % 8.82 C
68 22-08-2019 05:35:00 9.9 C 93 % 8.82 C
69 22-08-2019 05:40:00 9.8 C 93 % 8.72 C
70 22-08-2019 05:45:00 9.8 C 93 % 8.72 C
71 22-08-2019 05:50:00 9.8 C 93 % 8.72 C
72 22-08-2019 05:55:00 9.8 C 93 % 8.72 C
73 22-08-2019 06:00:00 9.7 C 93 % 8.62 C
74 22-08-2019 06:05:00 9.7 C 93 % 8.62 C
75 22-08-2019 06:10:00 9.7 C 93 % 8.62 C
Sensor: Nr:Datum:Temp:Feuchte:Taupunkt:
Aussen-T/F 76 22-08-2019 06:15:00 9.7 C 94 % 8.78 C
77 22-08-2019 06:20:00 9.7 C 94 % 8.78 C
78 22-08-2019 06:25:00 9.7 C 94 % 8.78 C
79 22-08-2019 06:30:00 9.7 C 94 % 8.78 C
80 22-08-2019 06:35:00 9.7 C 94 % 8.78 C
81 22-08-2019 06:40:00 9.7 C 94 % 8.78 C
82 22-08-2019 06:45:00 9.8 C 94 % 8.88 C
83 22-08-2019 06:50:00 9.8 C 94 % 8.88 C
84 22-08-2019 06:55:00 9.7 C 94 % 8.78 C
85 22-08-2019 07:00:00 9.7 C 94 % 8.78 C
86 22-08-2019 07:05:00 9.6 C 94 % 8.68 C
87 22-08-2019 07:10:00 9.6 C 94 % 8.68 C
88 22-08-2019 07:15:00 9.6 C 94 % 8.68 C
89 22-08-2019 07:20:00 9.7 C 95 % 8.94 C
90 22-08-2019 07:25:00 9.7 C 95 % 8.94 C
91 22-08-2019 07:30:00 9.7 C 95 % 8.94 C
92 22-08-2019 07:35:00 9.7 C 95 % 8.94 C
93 22-08-2019 07:40:00 9.7 C 95 % 8.94 C
94 22-08-2019 07:45:00 9.8 C 95 % 9.04 C
95 22-08-2019 07:50:00 9.8 C 95 % 9.04 C
96 22-08-2019 07:55:00 9.8 C 95 % 9.04 C
97 22-08-2019 08:00:00 9.9 C 95 % 9.14 C
98 22-08-2019 08:05:00 9.9 C 95 % 9.14 C
99 22-08-2019 08:10:00 10 C 95 % 9.24 C
100 22-08-2019 08:15:00 10.1 C 95 % 9.34 C
Sensor: Nr:Datum:Temp:Feuchte:Taupunkt:
Aussen-T/F 101 22-08-2019 08:20:00 10.2 C 95 % 9.44 C
102 22-08-2019 08:25:00 10.3 C 95 % 9.54 C
103 22-08-2019 08:30:00 10.3 C 95 % 9.54 C
104 22-08-2019 08:35:00 10.4 C 95 % 9.63 C
105 22-08-2019 08:40:00 10.5 C 96 % 9.89 C
106 22-08-2019 08:45:00 10.6 C 96 % 9.99 C
107 22-08-2019 08:50:00 10.7 C 96 % 10.09 C
108 22-08-2019 08:55:00 10.8 C 96 % 10.19 C
109 22-08-2019 09:00:00 10.9 C 96 % 10.29 C
110 22-08-2019 09:05:00 11 C 96 % 10.39 C
111 22-08-2019 09:10:00 11.1 C 96 % 10.49 C
112 22-08-2019 09:15:00 11.2 C 96 % 10.59 C
113 22-08-2019 09:20:00 11.3 C 96 % 10.69 C
114 22-08-2019 09:25:00 11.4 C 96 % 10.79 C
115 22-08-2019 09:30:00 11.6 C 96 % 10.98 C
116 22-08-2019 09:35:00 11.7 C 96 % 11.08 C
117 22-08-2019 09:40:00 11.8 C 96 % 11.18 C
118 22-08-2019 09:45:00 11.9 C 96 % 11.28 C
119 22-08-2019 09:50:00 12.1 C 96 % 11.48 C
120 22-08-2019 09:55:00 12.3 C 96 % 11.68 C
121 22-08-2019 10:00:00 12.4 C 96 % 11.78 C
122 22-08-2019 10:05:00 12.7 C 96 % 12.08 C
123 22-08-2019 10:10:00 12.8 C 96 % 12.18 C
124 22-08-2019 10:15:00 13 C 96 % 12.38 C
125 22-08-2019 10:20:00 13.2 C 96 % 12.58 C
Sensor: Nr:Datum:Temp:Feuchte:Taupunkt:
Aussen-T/F 126 22-08-2019 10:25:00 13.3 C 95 % 12.52 C
127 22-08-2019 10:30:00 13.6 C 95 % 12.81 C
128 22-08-2019 10:35:00 13.7 C 94 % 12.75 C
129 22-08-2019 10:40:00 13.9 C 94 % 12.95 C
130 22-08-2019 10:45:00 14.2 C 93 % 13.08 C
131 22-08-2019 10:50:00 14.6 C 92 % 13.32 C
132 22-08-2019 10:55:00 14.8 C 92 % 13.51 C
133 22-08-2019 11:00:00 15.2 C 90 % 13.57 C
134 22-08-2019 11:05:00 15.5 C 88 % 13.52 C
135 22-08-2019 11:10:00 15.9 C 88 % 13.92 C
136 22-08-2019 11:15:00 16.2 C 86 % 13.86 C
137 22-08-2019 11:20:00 16.4 C 86 % 14.05 C
138 22-08-2019 11:25:00 16.8 C 82 % 13.71 C
139 22-08-2019 11:30:00 17.2 C 79 % 13.53 C
140 22-08-2019 11:35:00 17.5 C 79 % 13.82 C
141 22-08-2019 11:40:00 17.8 C 79 % 14.11 C
142 22-08-2019 11:45:00 18 C 78 % 14.11 C
143 22-08-2019 11:50:00 18.2 C 77 % 14.1 C
144 22-08-2019 11:55:00 18.4 C 77 % 14.3 C
145 22-08-2019 12:00:00 18.7 C 77 % 14.59 C
146 22-08-2019 12:05:00 18.8 C 76 % 14.48 C
147 22-08-2019 12:10:00 19.1 C 77 % 14.97 C
148 22-08-2019 12:15:00 19.2 C 72 % 14.03 C
149 22-08-2019 12:20:00 19.4 C 67 % 13.12 C
150 22-08-2019 12:25:00 19.9 C 62 % 12.41 C
Sensor: Nr:Datum:Temp:Feuchte:Taupunkt:
Aussen-T/F 151 22-08-2019 12:30:00 20.4 C 66 % 13.84 C
152 22-08-2019 12:35:00 20.7 C 61 % 12.91 C
153 22-08-2019 12:40:00 21 C 59 % 12.69 C
154 22-08-2019 12:45:00 21.2 C 58 % 12.61 C
155 22-08-2019 12:50:00 21.4 C 58 % 12.8 C
156 22-08-2019 12:55:00 21.6 C 57 % 12.72 C
157 22-08-2019 13:00:00 21.8 C 58 % 13.17 C
158 22-08-2019 13:05:00 22.2 C 55 % 12.73 C
159 22-08-2019 13:10:00 22.3 C 54 % 12.55 C
160 22-08-2019 13:15:00 22.4 C 54 % 12.64 C
161 22-08-2019 13:20:00 22.6 C 53 % 12.54 C
162 22-08-2019 13:25:00 22.7 C 54 % 12.92 C
163 22-08-2019 13:30:00 22.8 C 53 % 12.73 C
164 22-08-2019 13:35:00 22.9 C 55 % 13.38 C
165 22-08-2019 13:40:00 22.9 C 53 % 12.82 C
166 22-08-2019 13:45:00 23.2 C 53 % 13.09 C
167 22-08-2019 13:50:00 23.3 C 52 % 12.9 C
168 22-08-2019 13:55:00 23.5 C 52 % 13.08 C
169 22-08-2019 14:00:00 23.6 C 51 % 12.88 C
170 22-08-2019 14:05:00 23.7 C 51 % 12.97 C
171 22-08-2019 14:10:00 23.7 C 49 % 12.36 C
172 22-08-2019 14:15:00 23.8 C 53 % 13.65 C
173 22-08-2019 14:20:00 23.9 C 50 % 12.85 C
174 22-08-2019 14:25:00 24 C 48 % 12.32 C
175 22-08-2019 14:30:00 24.1 C 46 % 11.76 C
Sensor: Nr:Datum:Temp:Feuchte:Taupunkt:
Aussen-T/F 176 22-08-2019 14:35:00 24.1 C 46 % 11.76 C
177 22-08-2019 14:40:00 24.2 C 48 % 12.5 C
178 22-08-2019 14:45:00 24.4 C 46 % 12.04 C
179 22-08-2019 14:50:00 24.7 C 44 % 11.63 C
180 22-08-2019 14:55:00 24.8 C 44 % 11.72 C
181 22-08-2019 15:00:00 24.9 C 44 % 11.81 C
182 22-08-2019 15:05:00 25.2 C 43 % 11.74 C
183 22-08-2019 15:10:00 25.5 C 41 % 11.29 C
184 22-08-2019 15:15:00 25.7 C 41 % 11.47 C
185 22-08-2019 15:20:00 25.9 C 40 % 11.27 C
186 22-08-2019 15:25:00 26.2 C 44 % 12.99 C
187 22-08-2019 15:30:00 26.2 C 43 % 12.64 C
188 22-08-2019 15:35:00 26.2 C 39 % 11.16 C
189 22-08-2019 15:40:00 26.2 C 38 % 10.77 C
190 22-08-2019 15:45:00 26.1 C 39 % 11.07 C
191 22-08-2019 15:50:00 26.2 C 40 % 11.54 C
192 22-08-2019 15:55:00 26.4 C 39 % 11.34 C
193 22-08-2019 16:00:00 26.6 C 38 % 11.12 C
194 22-08-2019 16:05:00 26.8 C 40 % 12.07 C
195 22-08-2019 16:10:00 26.8 C 37 % 10.9 C
196 22-08-2019 16:15:00 26.9 C 37 % 10.99 C
197 22-08-2019 16:20:00 27.1 C 39 % 11.96 C
198 22-08-2019 16:25:00 27.3 C 39 % 12.13 C
199 22-08-2019 16:30:00 27.6 C 37 % 11.6 C
200 22-08-2019 16:35:00 27.8 C 38 % 12.18 C
Sensor: Nr:Datum:Temp:Feuchte:Taupunkt:
Aussen-T/F 201 22-08-2019 16:40:00 27.7 C 34 % 10.42 C
202 22-08-2019 16:45:00 27.7 C 36 % 11.28 C
203 22-08-2019 16:50:00 27.8 C 37 % 11.78 C
204 22-08-2019 16:55:00 27.9 C 35 % 11.03 C
205 22-08-2019 17:00:00 28 C 35 % 11.12 C
206 22-08-2019 17:05:00 28.1 C 36 % 11.63 C
207 22-08-2019 17:10:00 28.1 C 34 % 10.77 C
208 22-08-2019 17:15:00 27.9 C 34 % 10.59 C
209 22-08-2019 17:20:00 27.9 C 34 % 10.59 C
210 22-08-2019 17:25:00 27.8 C 34 % 10.51 C
211 22-08-2019 17:30:00 27.9 C 34 % 10.59 C
212 22-08-2019 17:35:00 28.2 C 35 % 11.29 C
213 22-08-2019 17:40:00 28 C 34 % 10.68 C
214 22-08-2019 17:45:00 27.9 C 35 % 11.03 C
215 22-08-2019 17:50:00 28.1 C 36 % 11.63 C
216 22-08-2019 17:55:00 28.3 C 34 % 10.94 C
217 22-08-2019 18:00:00 28.3 C 32 % 10.03 C
218 22-08-2019 18:05:00 28.3 C 37 % 12.22 C
219 22-08-2019 18:10:00 28.3 C 33 % 10.49 C
220 22-08-2019 18:15:00 28.4 C 33 % 10.58 C
221 22-08-2019 18:20:00 28.4 C 32 % 10.12 C
222 22-08-2019 18:25:00 28.4 C 33 % 10.58 C
223 22-08-2019 18:30:00 28.4 C 34 % 11.03 C
224 22-08-2019 18:35:00 28.5 C 36 % 11.98 C
225 22-08-2019 18:40:00 28.4 C 32 % 10.12 C
Sensor: Nr:Datum:Temp:Feuchte:Taupunkt:
Aussen-T/F 226 22-08-2019 18:45:00 28.4 C 34 % 11.03 C
227 22-08-2019 18:50:00 28.4 C 38 % 12.72 C
228 22-08-2019 18:55:00 28.4 C 44 % 14.97 C
229 22-08-2019 19:00:00 28.3 C 45 % 15.23 C
230 22-08-2019 19:05:00 28.1 C 47 % 15.73 C
231 22-08-2019 19:10:00 27.7 C 46 % 15.03 C
232 22-08-2019 19:15:00 27.1 C 45 % 14.15 C
233 22-08-2019 19:20:00 26.6 C 48 % 14.69 C
234 22-08-2019 19:25:00 26.1 C 49 % 14.55 C
235 22-08-2019 19:30:00 25.7 C 51 % 14.81 C
236 22-08-2019 19:35:00 25.3 C 49 % 13.82 C
237 22-08-2019 19:40:00 24.9 C 51 % 14.07 C
238 22-08-2019 19:45:00 24.7 C 52 % 14.19 C
239 22-08-2019 19:50:00 24.3 C 53 % 14.11 C
240 22-08-2019 19:55:00 24 C 52 % 13.54 C
241 22-08-2019 20:00:00 23.7 C 53 % 13.56 C
242 22-08-2019 20:05:00 23.3 C 54 % 13.47 C
243 22-08-2019 20:10:00 22.9 C 55 % 13.38 C
244 22-08-2019 20:15:00 22.6 C 57 % 13.65 C
245 22-08-2019 20:20:00 22.2 C 58 % 13.55 C
246 22-08-2019 20:25:00 21.7 C 58 % 13.08 C
247 22-08-2019 20:30:00 21.3 C 59 % 12.97 C
248 22-08-2019 20:35:00 20.8 C 61 % 13.01 C
249 22-08-2019 20:40:00 20.3 C 61 % 12.54 C
250 22-08-2019 20:45:00 19.9 C 62 % 12.41 C
Sensor: Nr:Datum:Temp:Feuchte:Taupunkt:
Aussen-T/F 251 22-08-2019 20:50:00 19.7 C 62 % 12.22 C
252 22-08-2019 20:55:00 19.5 C 63 % 12.27 C
253 22-08-2019 21:00:00 19.3 C 65 % 12.56 C
254 22-08-2019 21:05:00 19.2 C 65 % 12.47 C
255 22-08-2019 21:10:00 18.9 C 65 % 12.18 C
256 22-08-2019 21:15:00 18.8 C 66 % 12.32 C
257 22-08-2019 21:20:00 18.6 C 68 % 12.58 C
258 22-08-2019 21:25:00 18.3 C 68 % 12.3 C
259 22-08-2019 21:30:00 18.1 C 69 % 12.33 C
260 22-08-2019 21:35:00 17.8 C 70 % 12.26 C
261 22-08-2019 21:40:00 17.7 C 72 % 12.59 C
262 22-08-2019 21:45:00 17.6 C 72 % 12.5 C
263 22-08-2019 21:50:00 17.4 C 73 % 12.51 C
264 22-08-2019 21:55:00 17.3 C 74 % 12.62 C
265 22-08-2019 22:00:00 17.2 C 74 % 12.53 C
266 22-08-2019 22:05:00 17 C 74 % 12.34 C
267 22-08-2019 22:10:00 16.8 C 74 % 12.14 C
268 22-08-2019 22:15:00 16.7 C 75 % 12.25 C
269 22-08-2019 22:20:00 16.6 C 76 % 12.36 C
270 22-08-2019 22:25:00 16.5 C 76 % 12.26 C
271 22-08-2019 22:30:00 16.4 C 77 % 12.36 C
272 22-08-2019 22:35:00 16.2 C 77 % 12.17 C
273 22-08-2019 22:40:00 16.1 C 78 % 12.27 C
274 22-08-2019 22:45:00 15.9 C 77 % 11.88 C
275 22-08-2019 22:50:00 15.8 C 76 % 11.58 C
Sensor: Nr:Datum:Temp:Feuchte:Taupunkt:
Aussen-T/F 276 22-08-2019 22:55:00 15.7 C 77 % 11.68 C
277 22-08-2019 23:00:00 15.6 C 77 % 11.59 C
278 22-08-2019 23:05:00 15.4 C 78 % 11.59 C
279 22-08-2019 23:10:00 15.3 C 78 % 11.49 C
280 22-08-2019 23:15:00 15.2 C 79 % 11.59 C
281 22-08-2019 23:20:00 15.1 C 79 % 11.49 C
282 22-08-2019 23:25:00 14.9 C 80 % 11.48 C
283 22-08-2019 23:30:00 14.8 C 80 % 11.39 C
284 22-08-2019 23:35:00 14.7 C 80 % 11.29 C
285 22-08-2019 23:40:00 14.6 C 80 % 11.19 C
286 22-08-2019 23:45:00 14.5 C 80 % 11.09 C
287 22-08-2019 23:50:00 14.4 C 80 % 11 C
288 22-08-2019 23:55:00 14.4 C 81 % 11.18 C

Legende:
   Min
   Max


Maximal/Minimal-Werte vom 22.08.2019 - 22.08.2019

Sensor Min Max Avg
Temp
(Aussen-T/F)
9.6 °C
22-08-2019  07:05:00
28.5 °C
22-08-2019  18:35:00
17.27 °C
Feuchte
(Aussen-T/F)
32 %
22-08-2019  18:00:00
96 %
22-08-2019  08:40:00
72.36 %
Taupunkt
(Aussen-T/F)
8.62 C
22-08-2019  06:00:00
15.73 C
22-08-2019  19:05:00
11.24 C

Die Daten stammen von einer Davis Vantage Pro 2 Wetter-Station und werden unter Linux mit der Software wview2wettercgi und aufbereitet. Alle Angaben erfolgen ohne Gewähr für ihre Vollständigkeit oder Richtigkeit.
Kontakt: Rainer Krienke krienke@uni-koblenz.de . Meine Webseiten an der Uni Koblenz oder privat.
Version: $Revision: 0.78 $